Time;durP1;ratioP1;P1;durP2;ratioP2;P2;SDS_P1;SDS_P2;PMS_P1;PMS_P2;Temp;Humidity;BMP_temperature;BMP_pressure;BME280_temperature;BME280_humidity;BME280_pressure;Samples;Min_cycle;Max_cycle;Signal;HPM_P1;HPM_P2
2023/09/19 00:02:17;;;;;;;3.73;1.83;;;24.00;62.30;;;;;;5093092;28;20493;-66
2023/09/19 00:04:43;;;;;;;2.63;2.00;;;24.00;62.30;;;;;;5093098;28;20498;-66
2023/09/19 00:07:09;;;;;;;2.07;1.97;;;24.00;62.30;;;;;;5093250;28;20495;-66
2023/09/19 00:09:37;;;;;;;5.63;2.50;;;24.00;62.30;;;;;;5093248;28;20664;-67
2023/09/19 00:12:06;;;;;;;3.47;2.10;;;24.00;62.30;;;;;;5092974;28;20424;-66
2023/09/19 00:14:35;;;;;;;2.60;1.80;;;24.00;62.20;;;;;;5092996;28;20917;-66
2023/09/19 00:17:05;;;;;;;1.87;1.50;;;24.00;62.20;;;;;;5092926;28;20403;-66
2023/09/19 00:19:32;;;;;;;2.40;1.87;;;24.00;62.20;;;;;;5092882;28;20424;-66
2023/09/19 00:21:58;;;;;;;2.90;1.70;;;24.00;62.20;;;;;;5092773;28;20432;-67
2023/09/19 00:24:23;;;;;;;3.30;1.63;;;24.00;62.20;;;;;;5092712;28;20392;-66
2023/09/19 00:26:49;;;;;;;6.80;2.13;;;24.10;62.20;;;;;;5092724;28;20235;-66
2023/09/19 00:29:16;;;;;;;2.60;2.20;;;24.00;62.10;;;;;;5092644;28;20165;-67
2023/09/19 00:31:44;;;;;;;1.90;1.67;;;24.00;62.00;;;;;;5092552;28;20768;-66
2023/09/19 00:34:10;;;;;;;2.13;1.93;;;24.00;62.00;;;;;;5092671;28;20407;-66
2023/09/19 00:36:39;;;;;;;1.90;1.50;;;24.00;62.00;;;;;;5092506;28;20404;-66
2023/09/19 00:39:05;;;;;;;3.67;1.90;;;24.10;62.10;;;;;;5092438;28;20415;-67
2023/09/19 00:41:32;;;;;;;2.63;1.80;;;24.00;61.90;;;;;;5092379;28;20411;-66
2023/09/19 00:43:59;;;;;;;2.53;1.90;;;24.00;61.90;;;;;;5092373;28;20415;-66
2023/09/19 00:46:25;;;;;;;3.03;2.10;;;24.00;61.90;;;;;;5092289;28;20486;-66
2023/09/19 00:48:51;;;;;;;3.37;1.40;;;24.00;62.00;;;;;;5091635;28;20539;-66
2023/09/19 00:51:20;;;;;;;4.97;1.97;;;24.00;62.00;;;;;;5091987;28;20700;-66
2023/09/19 00:53:47;;;;;;;2.10;1.60;;;23.90;61.90;;;;;;5091215;28;20252;-66
2023/09/19 00:56:13;;;;;;;3.47;1.97;;;23.90;61.90;;;;;;5092203;28;20412;-66
2023/09/19 00:58:40;;;;;;;3.53;1.60;;;23.80;61.90;;;;;;5090954;28;20449;-66
2023/09/19 01:01:06;;;;;;;2.10;1.50;;;23.80;62.00;;;;;;5092062;28;20411;-66
2023/09/19 01:03:33;;;;;;;3.90;2.40;;;23.80;62.00;;;;;;5091923;28;20431;-65
2023/09/19 01:06:00;;;;;;;3.13;1.90;;;23.80;61.90;;;;;;5091921;28;20825;-66
2023/09/19 01:08:29;;;;;;;1.67;1.43;;;23.80;61.90;;;;;;5092223;28;20418;-66
2023/09/19 01:11:20;;;;;;;4.47;1.83;;;23.80;62.00;;;;;;5091829;28;20459;-66
2023/09/19 01:13:57;;;;;;;1.70;1.60;;;23.70;61.80;;;;;;5092184;28;20396;-66
2023/09/19 01:16:46;;;;;;;2.43;1.70;;;23.70;62.00;;;;;;5091809;28;20379;-66
2023/09/19 01:19:43;;;;;;;2.50;1.47;;;23.60;61.90;;;;;;5083618;28;20435;-66
2023/09/19 01:22:37;;;;;;;4.37;1.90;;;23.60;62.00;;;;;;5091677;28;20793;-66
2023/09/19 01:25:26;;;;;;;2.00;1.60;;;23.60;62.00;;;;;;5091756;28;20425;-65
2023/09/19 01:28:29;;;;;;;1.60;1.50;;;23.60;62.00;;;;;;5091746;28;20903;-66
2023/09/19 01:30:58;;;;;;;1.83;1.50;;;23.60;62.00;;;;;;5091668;28;20504;-66
2023/09/19 01:33:24;;;;;;;2.87;1.37;;;23.60;62.00;;;;;;5091610;28;20423;-66
2023/09/19 01:35:50;;;;;;;2.10;1.50;;;23.60;62.00;;;;;;5091630;28;20884;-66
2023/09/19 01:38:17;;;;;;;2.43;1.20;;;23.60;62.00;;;;;;5091570;28;20193;-66
2023/09/19 01:40:48;;;;;;;3.00;1.90;;;23.60;61.90;;;;;;5091569;28;20169;-67
2023/09/19 01:43:30;;;;;;;2.47;1.60;;;23.60;61.90;;;;;;5091578;28;20987;-67
2023/09/19 01:45:58;;;;;;;1.50;1.20;;;23.60;61.80;;;;;;5091595;28;20423;-67
2023/09/19 01:48:49;;;;;;;3.37;1.93;;;23.50;61.70;;;;;;5091471;28;20414;-67
2023/09/19 01:51:37;;;;;;;2.50;1.43;;;23.50;61.70;;;;;;5091306;28;20485;-67
2023/09/19 01:54:09;;;;;;;1.70;1.40;;;23.50;61.70;;;;;;5090106;28;20399;-67
2023/09/19 01:56:44;;;;;;;2.90;1.37;;;23.50;61.70;;;;;;5091370;28;20911;-67
2023/09/19 01:59:24;;;;;;;2.10;1.63;;;23.60;61.60;;;;;;5091397;28;20470;-67
2023/09/19 02:01:52;;;;;;;2.77;1.57;;;23.60;61.50;;;;;;5091220;28;20431;-67
2023/09/19 02:04:17;;;;;;;2.70;1.50;;;23.60;61.50;;;;;;5091280;28;20409;-67
2023/09/19 02:06:43;;;;;;;5.40;1.90;;;23.60;61.40;;;;;;5091232;28;20477;-67
2023/09/19 02:09:09;;;;;;;2.03;1.60;;;23.60;61.30;;;;;;5091283;28;20626;-67
2023/09/19 02:11:35;;;;;;;2.10;1.53;;;23.70;61.30;;;;;;5091057;28;20371;-67
2023/09/19 02:14:01;;;;;;;1.40;1.20;;;23.60;61.10;;;;;;5091213;28;20243;-66
2023/09/19 02:16:28;;;;;;;1.30;1.17;;;23.70;61.10;;;;;;5091123;28;20411;-66
2023/09/19 02:18:54;;;;;;;1.63;1.50;;;23.70;61.00;;;;;;5091174;28;20491;-66
2023/09/19 02:21:21;;;;;;;1.87;1.50;;;23.70;61.10;;;;;;5089734;28;20531;-67
2023/09/19 02:23:47;;;;;;;2.30;1.13;;;23.70;61.00;;;;;;5091183;28;20166;-66
2023/09/19 02:26:13;;;;;;;2.40;1.47;;;23.70;60.90;;;;;;5091149;28;20418;-67
2023/09/19 02:28:39;;;;;;;4.77;1.63;;;23.70;60.80;;;;;;5091067;28;20218;-67
2023/09/19 02:31:07;;;;;;;1.63;1.50;;;23.70;60.70;;;;;;5090955;28;20455;-67
2023/09/19 02:33:33;;;;;;;1.97;1.40;;;23.70;60.60;;;;;;5095052;28;20542;-67
2023/09/19 02:36:00;;;;;;;1.93;1.10;;;23.70;60.60;;;;;;5095131;28;20399;-67
2023/09/19 02:38:26;;;;;;;1.93;1.40;;;23.70;60.50;;;;;;5095316;28;20629;-67
2023/09/19 02:40:55;;;;;;;4.33;1.77;;;23.70;60.50;;;;;;5095089;28;20404;-65
2023/09/19 02:43:21;;;;;;;1.57;1.40;;;23.70;60.60;;;;;;5095018;28;20215;-65
2023/09/19 02:45:49;;;;;;;2.30;1.40;;;23.70;60.50;;;;;;5094927;28;20403;-68
2023/09/19 02:48:15;;;;;;;1.40;1.30;;;23.70;60.40;;;;;;5093545;28;20438;-67
2023/09/19 02:50:41;;;;;;;1.70;1.40;;;23.70;60.40;;;;;;5094719;28;20966;-67
2023/09/19 02:53:07;;;;;;;2.13;1.30;;;23.70;60.40;;;;;;5094737;28;20902;-64
2023/09/19 02:55:33;;;;;;;4.10;1.40;;;23.70;60.40;;;;;;5094823;28;20448;-66
2023/09/19 02:58:01;;;;;;;3.00;1.37;;;23.70;60.40;;;;;;5094648;28;20653;-66
2023/09/19 03:00:27;;;;;;;2.30;1.33;;;23.70;60.30;;;;;;5094647;28;20545;-67
2023/09/19 03:02:54;;;;;;;2.07;1.30;;;23.70;61.10;;;;;;5094518;28;20502;-67
2023/09/19 03:05:23;;;;;;;3.00;1.07;;;23.70;60.20;;;;;;5094521;28;20177;-67
2023/09/19 03:07:50;;;;;;;1.70;1.40;;;23.80;60.30;;;;;;5094797;28;20414;-67
2023/09/19 03:10:20;;;;;;;1.67;1.10;;;23.70;60.10;;;;;;5094514;28;20546;-67
2023/09/19 03:12:46;;;;;;;1.50;1.30;;;23.70;60.00;;;;;;5094455;28;20423;-67
2023/09/19 03:15:12;;;;;;;1.33;1.10;;;23.70;60.00;;;;;;5094686;28;20410;-67
2023/09/19 03:17:42;;;;;;;1.87;1.20;;;23.70;60.00;;;;;;5094344;28;20899;-67
2023/09/19 03:20:08;;;;;;;3.43;1.67;;;23.70;60.00;;;;;;5094256;28;20435;-67
2023/09/19 03:22:34;;;;;;;1.90;1.50;;;23.70;60.00;;;;;;5094238;28;20431;-67
2023/09/19 03:25:00;;;;;;;2.60;1.30;;;23.70;60.00;;;;;;5094574;28;20461;-67
2023/09/19 03:27:26;;;;;;;1.53;1.10;;;23.70;60.00;;;;;;5094242;28;20641;-67
2023/09/19 03:29:53;;;;;;;1.50;1.30;;;23.70;59.90;;;;;;5094071;28;20459;-66
2023/09/19 03:32:19;;;;;;;1.63;1.30;;;23.70;60.00;;;;;;5094022;28;20428;-67
2023/09/19 03:34:44;;;;;;;2.30;1.40;;;23.70;59.90;;;;;;5094350;28;20948;-67
2023/09/19 03:37:10;;;;;;;1.60;1.20;;;23.70;59.90;;;;;;5094054;28;20261;-67
2023/09/19 03:39:36;;;;;;;1.83;1.40;;;23.80;60.00;;;;;;5094343;28;20169;-67
2023/09/19 03:42:03;;;;;;;1.60;1.20;;;23.70;59.80;;;;;;5093536;28;20265;-66
2023/09/19 03:44:30;;;;;;;4.70;1.40;;;23.70;59.80;;;;;;5093923;28;20244;-66
2023/09/19 03:46:56;;;;;;;2.83;1.30;;;23.70;59.80;;;;;;5093912;28;20411;-67
2023/09/19 03:49:22;;;;;;;2.40;1.60;;;23.70;59.80;;;;;;5093839;28;20822;-66
2023/09/19 03:51:48;;;;;;;1.40;1.10;;;23.70;59.80;;;;;;5093623;28;20493;-66
2023/09/19 03:54:13;;;;;;;1.73;1.60;;;23.70;59.80;;;;;;5093655;28;20403;-67
2023/09/19 03:56:39;;;;;;;3.50;1.50;;;23.70;59.80;;;;;;5093666;28;20170;-68
2023/09/19 03:59:05;;;;;;;1.47;1.20;;;23.70;59.80;;;;;;5093608;28;20601;-67
2023/09/19 04:01:32;;;;;;;2.60;1.30;;;23.70;59.80;;;;;;5093562;28;20272;-66
2023/09/19 04:03:58;;;;;;;2.20;1.50;;;23.70;59.80;;;;;;5093895;28;20185;-67
2023/09/19 04:06:24;;;;;;;1.97;1.30;;;23.70;59.80;;;;;;5093537;28;20408;-67
2023/09/19 04:08:50;;;;;;;2.50;1.50;;;23.70;59.80;;;;;;5093759;28;20174;-67
2023/09/19 04:11:15;;;;;;;1.63;1.30;;;23.70;59.80;;;;;;5093030;28;20673;-67
2023/09/19 04:13:41;;;;;;;3.00;1.50;;;23.70;59.80;;;;;;5093508;28;20173;-69
2023/09/19 04:16:06;;;;;;;2.23;1.30;;;23.70;59.80;;;;;;5093378;28;20249;-67
2023/09/19 04:18:37;;;;;;;4.47;2.80;;;23.70;59.80;;;;;;5093601;28;20166;-66
2023/09/19 04:21:04;;;;;;;3.50;1.50;;;23.70;59.80;;;;;;5093126;28;20227;-66
2023/09/19 04:23:29;;;;;;;2.63;1.63;;;23.70;59.80;;;;;;5093156;28;20434;-66
2023/09/19 04:25:55;;;;;;;2.00;1.40;;;23.70;59.90;;;;;;5093108;28;20919;-67
2023/09/19 04:28:20;;;;;;;1.73;1.63;;;23.70;59.90;;;;;;5091776;28;20223;-66
2023/09/19 04:30:46;;;;;;;2.20;1.37;;;23.70;59.90;;;;;;5093023;28;20727;-67
2023/09/19 04:33:14;;;;;;;1.87;1.30;;;23.70;60.00;;;;;;5093016;28;20276;-67
2023/09/19 04:35:42;;;;;;;2.97;1.40;;;23.70;60.00;;;;;;5093081;28;20259;-71
2023/09/19 04:38:08;;;;;;;1.60;1.27;;;23.80;60.00;;;;;;5093046;28;20408;-66
2023/09/19 04:40:34;;;;;;;1.40;1.20;;;23.70;60.00;;;;;;5092878;28;20410;-66
2023/09/19 04:43:00;;;;;;;3.50;1.50;;;23.70;60.00;;;;;;5092737;28;20555;-67
2023/09/19 04:45:26;;;;;;;2.20;1.40;;;23.70;60.00;;;;;;5091548;28;20273;-67
2023/09/19 04:47:52;;;;;;;3.37;1.60;;;23.70;60.00;;;;;;5092297;28;20404;-67
2023/09/19 04:50:19;;;;;;;1.73;1.57;;;23.80;60.10;;;;;;5092640;28;20462;-67
2023/09/19 04:52:45;;;;;;;1.93;1.40;;;23.70;60.00;;;;;;5092514;28;20469;-67
2023/09/19 04:55:17;;;;;;;3.20;1.77;;;23.80;60.10;;;;;;5092019;28;20416;-66
2023/09/19 04:57:47;;;;;;;2.33;1.43;;;23.80;60.10;;;;;;5092527;28;20400;-68
2023/09/19 05:00:29;;;;;;;1.90;1.63;;;23.80;60.10;;;;;;5092324;28;20404;-67
2023/09/19 05:02:58;;;;;;;2.30;1.43;;;23.80;60.10;;;;;;5091283;28;21144;-66
2023/09/19 05:05:25;;;;;;;1.37;1.27;;;23.80;60.20;;;;;;5090849;28;20415;-67
2023/09/19 05:07:51;;;;;;;2.90;1.50;;;23.80;60.10;;;;;;5092643;28;20510;-67
2023/09/19 05:10:18;;;;;;;2.10;1.63;;;23.80;60.10;;;;;;5092044;28;20447;-67
2023/09/19 05:12:47;;;;;;;2.93;1.57;;;23.80;60.20;;;;;;5092128;28;20419;-67
2023/09/19 05:15:14;;;;;;;2.17;1.73;;;23.80;60.20;;;;;;5091924;28;20447;-65
2023/09/19 05:17:40;;;;;;;3.70;2.37;;;23.80;60.20;;;;;;5092462;28;20408;-66
2023/09/19 05:20:24;;;;;;;2.83;2.00;;;23.80;60.10;;;;;;5091974;28;20420;-66
2023/09/19 05:23:05;;;;;;;2.27;1.50;;;23.80;60.20;;;;;;5092042;28;20660;-67
2023/09/19 05:25:38;;;;;;;2.67;1.80;;;23.80;60.20;;;;;;5092157;28;20404;-67
2023/09/19 05:28:09;;;;;;;3.17;1.70;;;23.80;60.20;;;;;;5092263;28;20445;-67
2023/09/19 05:30:38;;;;;;;2.47;2.00;;;23.80;60.20;;;;;;5092362;28;20448;-67
2023/09/19 05:33:05;;;;;;;2.20;2.00;;;23.80;60.30;;;;;;5092233;28;20859;-68
2023/09/19 05:35:31;;;;;;;2.30;1.83;;;23.80;60.30;;;;;;5091949;28;20407;-66
2023/09/19 05:37:57;;;;;;;1.80;1.70;;;23.80;60.30;;;;;;5091894;28;20414;-67
2023/09/19 05:40:24;;;;;;;1.77;1.67;;;23.80;60.40;;;;;;5091460;28;20411;-67
2023/09/19 05:42:53;;;;;;;2.30;1.87;;;23.80;60.30;;;;;;5091894;28;20435;-66
2023/09/19 05:45:22;;;;;;;2.37;1.83;;;23.80;60.30;;;;;;5080284;28;20432;-68
2023/09/19 05:47:50;;;;;;;2.77;1.90;;;23.80;60.20;;;;;;5071324;28;20427;-67
2023/09/19 05:50:16;;;;;;;1.97;1.60;;;23.80;60.30;;;;;;5069162;28;20459;-67
2023/09/19 05:52:44;;;;;;;2.00;1.80;;;23.80;60.20;;;;;;5070048;28;20420;-66
2023/09/19 05:55:10;;;;;;;2.40;2.20;;;23.80;60.30;;;;;;5071234;28;20166;-67
2023/09/19 05:57:38;;;;;;;2.27;1.83;;;23.80;60.30;;;;;;5071108;28;20393;-67
2023/09/19 06:00:10;;;;;;;1.70;1.60;;;23.80;60.30;;;;;;5070334;28;20412;-67
2023/09/19 06:02:37;;;;;;;1.97;1.77;;;23.80;60.40;;;;;;5071306;28;20436;-67
2023/09/19 06:05:09;;;;;;;1.67;1.57;;;23.80;60.40;;;;;;5071027;28;20450;-66
2023/09/19 06:07:37;;;;;;;2.80;1.83;;;23.80;60.40;;;;;;5071595;28;20388;-67
2023/09/19 06:10:07;;;;;;;1.53;1.43;;;23.80;60.40;;;;;;5071217;28;20447;-67
2023/09/19 06:12:33;;;;;;;2.10;1.80;;;23.80;60.40;;;;;;5071193;28;20498;-67
2023/09/19 06:14:59;;;;;;;1.83;1.60;;;23.80;60.40;;;;;;5071218;28;20458;-66
2023/09/19 06:17:27;;;;;;;2.80;1.93;;;23.80;60.40;;;;;;5070971;28;20409;-66
2023/09/19 06:19:53;;;;;;;1.97;1.70;;;23.80;60.40;;;;;;5070948;28;20214;-66
2023/09/19 06:22:19;;;;;;;2.13;1.53;;;23.80;60.40;;;;;;5071257;28;21455;-66
2023/09/19 06:24:45;;;;;;;2.30;1.57;;;23.80;60.50;;;;;;5070944;28;20171;-66
2023/09/19 06:27:10;;;;;;;2.87;1.80;;;23.80;60.40;;;;;;5071013;28;20214;-66
2023/09/19 06:29:37;;;;;;;1.67;1.40;;;23.80;60.40;;;;;;5070952;28;20412;-67
2023/09/19 06:32:10;;;;;;;1.80;1.40;;;23.80;60.50;;;;;;5070993;28;20190;-67
2023/09/19 06:34:36;;;;;;;4.03;1.53;;;23.90;60.60;;;;;;5071112;28;20442;-67
2023/09/19 06:37:03;;;;;;;2.83;1.73;;;23.80;60.50;;;;;;5070882;28;20404;-65
2023/09/19 06:39:28;;;;;;;1.80;1.50;;;23.90;60.50;;;;;;5070711;28;20416;-67
2023/09/19 06:41:54;;;;;;;1.70;1.60;;;23.90;60.60;;;;;;5070745;28;21006;-65
2023/09/19 06:44:21;;;;;;;1.80;1.70;;;23.80;60.50;;;;;;5070949;28;20183;-67
2023/09/19 06:46:49;;;;;;;1.70;1.47;;;23.80;60.40;;;;;;5070960;28;20538;-65
2023/09/19 06:49:15;;;;;;;1.90;1.70;;;23.90;60.50;;;;;;5070909;28;20782;-67
2023/09/19 06:51:41;;;;;;;1.80;1.70;;;23.80;60.40;;;;;;5070882;28;20472;-66
2023/09/19 06:54:07;;;;;;;1.67;1.33;;;23.90;60.50;;;;;;5070812;28;20729;-65
2023/09/19 06:56:33;;;;;;;1.53;1.40;;;23.80;60.40;;;;;;5071104;28;20495;-66
2023/09/19 06:58:58;;;;;;;2.00;1.63;;;23.90;60.50;;;;;;5070806;28;20541;-66
2023/09/19 07:01:25;;;;;;;2.70;1.70;;;23.90;60.40;;;;;;5070677;28;20174;-67
2023/09/19 07:03:50;;;;;;;2.40;1.90;;;23.80;61.10;;;;;;5070757;28;20250;-67
2023/09/19 07:06:16;;;;;;;2.10;1.90;;;23.80;60.30;;;;;;5075442;28;20502;-65
2023/09/19 07:08:44;;;;;;;1.97;1.80;;;23.90;60.40;;;;;;5090782;28;20173;-65
2023/09/19 07:11:12;;;;;;;2.37;1.80;;;23.90;60.30;;;;;;5090831;28;20508;-66
2023/09/19 07:13:38;;;;;;;2.60;1.40;;;23.90;60.30;;;;;;5090717;28;20431;-66
2023/09/19 07:16:04;;;;;;;2.70;1.80;;;23.90;61.10;;;;;;5090899;28;20430;-67
2023/09/19 07:18:29;;;;;;;1.93;1.50;;;23.90;60.20;;;;;;5092984;28;20407;-67
2023/09/19 07:21:04;;;;;;;1.60;1.40;;;23.90;60.30;;;;;;5093066;28;20276;-64
2023/09/19 07:23:34;;;;;;;1.47;1.37;;;23.90;60.20;;;;;;5094648;28;20246;-67
2023/09/19 07:26:01;;;;;;;2.67;1.50;;;23.90;60.20;;;;;;5093074;28;20468;-65
2023/09/19 07:28:28;;;;;;;2.57;1.63;;;23.90;60.20;;;;;;5094364;28;20406;-67
2023/09/19 07:30:54;;;;;;;4.00;1.80;;;23.90;60.20;;;;;;5094135;28;20504;-66
2023/09/19 07:33:19;;;;;;;2.20;1.67;;;23.90;60.10;;;;;;5094159;28;20423;-66
2023/09/19 07:35:46;;;;;;;1.83;1.60;;;23.90;60.20;;;;;;5094129;28;20650;-65
2023/09/19 07:38:12;;;;;;;1.83;1.40;;;23.90;60.10;;;;;;5094111;28;20214;-67
2023/09/19 07:40:38;;;;;;;1.77;1.40;;;23.90;60.00;;;;;;5094067;28;20817;-66
2023/09/19 07:43:04;;;;;;;1.50;1.40;;;23.90;60.80;;;;;;5093906;28;20200;-66
2023/09/19 07:45:31;;;;;;;4.60;2.13;;;23.90;60.00;;;;;;5093973;28;20192;-67
2023/09/19 07:47:56;;;;;;;2.50;1.70;;;23.90;60.00;;;;;;5093968;28;20431;-67
2023/09/19 07:50:22;;;;;;;2.17;1.77;;;23.90;60.00;;;;;;5093840;28;20447;-67
2023/09/19 07:52:50;;;;;;;1.70;1.60;;;23.90;59.90;;;;;;5093756;28;20265;-65
2023/09/19 07:55:17;;;;;;;2.27;1.90;;;23.90;59.90;;;;;;5093840;28;20410;-66
2023/09/19 07:57:46;;;;;;;2.27;1.70;;;23.90;59.90;;;;;;5093830;28;20407;-67
2023/09/19 08:00:12;;;;;;;2.37;1.87;;;23.90;59.80;;;;;;5093709;28;20403;-67
2023/09/19 08:02:39;;;;;;;2.33;1.60;;;23.90;59.80;;;;;;5093594;28;20423;-68
2023/09/19 08:05:06;;;;;;;2.43;1.60;;;23.90;59.70;;;;;;5093527;28;20404;-66
2023/09/19 08:07:32;;;;;;;2.93;1.80;;;23.90;59.70;;;;;;5093592;28;20500;-67
2023/09/19 08:09:58;;;;;;;2.60;1.70;;;23.90;59.70;;;;;;5093456;28;20443;-66
2023/09/19 08:12:24;;;;;;;1.90;1.80;;;23.90;59.70;;;;;;5093423;28;20420;-67
2023/09/19 08:14:50;;;;;;;2.00;1.80;;;23.90;59.70;;;;;;5092151;28;20469;-65
2023/09/19 08:17:16;;;;;;;2.20;1.90;;;23.90;59.60;;;;;;5093423;28;20407;-67
2023/09/19 08:19:44;;;;;;;3.00;1.73;;;23.90;59.50;;;;;;5093379;28;20162;-67
2023/09/19 08:22:10;;;;;;;2.30;1.77;;;23.90;59.50;;;;;;5093287;28;20419;-66
2023/09/19 08:24:36;;;;;;;2.23;1.50;;;23.90;59.50;;;;;;5090387;28;20827;-66
2023/09/19 08:27:04;;;;;;;2.23;1.87;;;23.90;59.60;;;;;;5081851;28;20407;-65
2023/09/19 08:29:30;;;;;;;1.70;1.40;;;23.90;59.60;;;;;;5075515;28;20405;-66
2023/09/19 08:31:59;;;;;;;1.93;1.50;;;23.90;59.60;;;;;;5072658;28;20811;-67
2023/09/19 08:34:25;;;;;;;2.90;1.80;;;23.90;59.70;;;;;;5072874;28;20401;-66
2023/09/19 08:36:58;;;;;;;2.10;1.73;;;23.90;59.60;;;;;;5072918;28;20415;-66
2023/09/19 08:39:24;;;;;;;4.30;2.20;;;23.90;59.50;;;;;;5072791;28;20397;-67
2023/09/19 08:41:56;;;;;;;2.90;2.00;;;23.90;59.20;;;;;;5072621;28;20432;-67
2023/09/19 08:44:22;;;;;;;2.87;1.80;;;23.90;59.10;;;;;;5072522;28;20400;-67
2023/09/19 08:46:50;;;;;;;2.83;1.60;;;23.90;58.90;;;;;;5072535;28;20420;-67
2023/09/19 08:49:30;;;;;;;2.73;1.80;;;23.90;58.90;;;;;;5072554;28;20229;-67
2023/09/19 08:52:13;;;;;;;4.13;1.97;;;23.90;58.90;;;;;;5072231;28;20545;-67
2023/09/19 08:54:41;;;;;;;2.97;1.77;;;23.90;58.70;;;;;;5072389;28;20419;-67
2023/09/19 08:57:11;;;;;;;2.10;1.70;;;23.90;58.40;;;;;;5072329;28;20450;-66
2023/09/19 08:59:41;;;;;;;2.20;1.63;;;23.90;58.20;;;;;;5072739;28;20772;-66
2023/09/19 09:02:15;;;;;;;1.90;1.70;;;23.90;58.00;;;;;;5072298;28;20841;-67
2023/09/19 09:04:44;;;;;;;2.10;1.77;;;23.80;57.80;;;;;;5072315;28;20405;-66
2023/09/19 09:07:18;;;;;;;2.00;1.80;;;23.90;57.90;;;;;;5072250;28;20417;-67
2023/09/19 09:09:45;;;;;;;3.53;1.90;;;23.80;57.30;;;;;;5072177;28;20432;-67
2023/09/19 09:12:13;;;;;;;3.20;1.63;;;23.80;57.00;;;;;;5072273;28;20436;-67
2023/09/19 09:14:50;;;;;;;3.40;1.87;;;23.80;57.10;;;;;;5072090;28;20405;-67
2023/09/19 09:17:20;;;;;;;4.03;1.87;;;23.80;57.20;;;;;;5070679;28;20420;-66
2023/09/19 09:19:47;;;;;;;2.67;1.77;;;23.80;57.50;;;;;;5075455;28;20999;-66
2023/09/19 09:22:12;;;;;;;2.00;1.50;;;23.80;57.10;;;;;;5091323;28;20435;-67
2023/09/19 09:24:57;;;;;;;2.27;1.90;;;23.80;57.00;;;;;;5091761;28;20453;-67
2023/09/19 09:27:23;;;;;;;1.93;1.73;;;23.80;57.00;;;;;;5091825;28;20170;-67
2023/09/19 09:29:50;;;;;;;2.63;2.00;;;23.70;57.10;;;;;;5091807;28;20452;-66
2023/09/19 09:32:18;;;;;;;3.87;2.00;;;23.80;57.10;;;;;;5092165;28;20833;-67
2023/09/19 09:34:44;;;;;;;2.00;1.57;;;23.70;56.40;;;;;;5092157;28;20498;-67
2023/09/19 09:37:15;;;;;;;2.30;1.90;;;23.70;56.50;;;;;;5091798;28;20491;-67
2023/09/19 09:39:54;;;;;;;1.77;1.63;;;23.70;56.30;;;;;;5091616;28;20840;-67
2023/09/19 09:42:35;;;;;;;2.27;2.07;;;23.70;56.30;;;;;;5091558;28;20796;-67
2023/09/19 09:45:28;;;;;;;5.50;2.17;;;23.70;56.40;;;;;;5090328;28;20774;-67
2023/09/19 09:47:56;;;;;;;3.50;1.80;;;23.70;56.10;;;;;;5091638;28;20765;-67
2023/09/19 09:50:39;;;;;;;5.00;2.10;;;23.60;56.10;;;;;;5091497;28;20458;-65
2023/09/19 09:53:19;;;;;;;2.27;1.80;;;23.60;56.00;;;;;;5091465;28;20481;-66
2023/09/19 09:56:07;;;;;;;3.30;2.10;;;23.60;55.80;;;;;;5091293;28;20402;-67
2023/09/19 09:58:36;;;;;;;1.87;1.70;;;23.60;55.60;;;;;;5091714;28;20487;-68
2023/09/19 10:01:10;;;;;;;3.47;2.13;;;23.60;55.60;;;;;;5091522;28;20464;-67
2023/09/19 10:03:39;;;;;;;2.30;1.90;;;23.60;55.40;;;;;;5091418;28;20506;-67
2023/09/19 10:06:26;;;;;;;3.27;1.70;;;23.60;55.50;;;;;;5091417;28;20423;-67
2023/09/19 10:09:29;;;;;;;2.93;2.30;;;23.60;55.70;;;;;;5091462;28;20400;-67
2023/09/19 10:12:08;;;;;;;2.43;1.87;;;23.60;55.70;;;;;;5085011;28;20486;-67
2023/09/19 10:14:37;;;;;;;2.50;2.30;;;23.60;55.80;;;;;;5091568;28;20418;-67
2023/09/19 10:17:05;;;;;;;2.73;2.33;;;23.50;55.40;;;;;;5091703;28;20770;-67
2023/09/19 10:19:37;;;;;;;3.27;1.97;;;23.50;55.60;;;;;;5091097;28;20444;-66
2023/09/19 10:22:05;;;;;;;2.00;1.70;;;23.60;55.90;;;;;;5091272;28;20470;-67
2023/09/19 10:24:36;;;;;;;2.50;1.93;;;23.50;55.80;;;;;;5091473;28;20414;-66
2023/09/19 10:27:04;;;;;;;2.47;1.90;;;23.50;55.50;;;;;;5091208;28;20396;-65
2023/09/19 10:29:35;;;;;;;2.17;1.80;;;23.60;55.80;;;;;;5091188;28;20519;-66
2023/09/19 10:32:05;;;;;;;1.63;1.53;;;23.60;55.80;;;;;;5090957;28;20470;-66
2023/09/19 10:34:35;;;;;;;3.40;2.30;;;23.60;55.70;;;;;;5090903;28;20400;-66
2023/09/19 10:37:09;;;;;;;2.90;1.70;;;23.60;55.90;;;;;;5091090;28;20911;-66
2023/09/19 10:39:38;;;;;;;3.30;2.07;;;23.60;55.70;;;;;;5091275;28;20392;-67
2023/09/19 10:42:08;;;;;;;2.47;1.83;;;23.60;56.30;;;;;;5091301;28;20427;-66
2023/09/19 10:44:43;;;;;;;2.33;1.50;;;23.60;55.80;;;;;;5089667;28;20444;-67
2023/09/19 10:47:09;;;;;;;3.00;1.60;;;23.60;55.90;;;;;;5090944;28;20388;-67
2023/09/19 10:49:35;;;;;;;2.40;1.77;;;23.60;55.70;;;;;;5091047;28;20447;-66
2023/09/19 10:52:01;;;;;;;2.30;1.90;;;23.60;55.70;;;;;;5091162;28;20490;-66
2023/09/19 10:54:34;;;;;;;2.80;1.63;;;23.60;55.60;;;;;;5094838;28;20713;-64
2023/09/19 10:57:00;;;;;;;3.13;1.93;;;23.60;55.50;;;;;;5094680;28;20766;-64
2023/09/19 10:59:34;;;;;;;2.97;1.47;;;23.70;55.90;;;;;;5094958;28;20907;-67
2023/09/19 11:02:15;;;;;;;1.70;1.40;;;23.60;55.60;;;;;;5094502;28;20427;-66
2023/09/19 11:04:40;;;;;;;2.40;1.60;;;23.60;55.70;;;;;;5094569;28;20399;-65
2023/09/19 11:07:11;;;;;;;3.07;1.90;;;23.70;55.70;;;;;;5095084;28;20937;-67
2023/09/19 11:09:57;;;;;;;2.90;1.70;;;23.70;55.60;;;;;;5094591;28;20173;-64
2023/09/19 11:14:58;;;;;;;7.70;2.43;;;23.70;55.70;;;;;;5094977;28;20890;-67
2023/09/19 11:17:31;;;;;;;2.93;2.17;;;23.70;55.50;;;;;;5094924;28;20438;-67
2023/09/19 11:22:58;;;;;;;3.10;2.00;;;23.70;55.50;;;;;;5094405;28;20822;-67
2023/09/19 11:25:30;;;;;;;3.00;1.70;;;23.70;55.30;;;;;;5094448;28;20415;-66
2023/09/19 11:30:35;;;;;;;2.73;1.90;;;23.70;55.00;;;;;;5094335;28;20463;-67
2023/09/19 11:33:21;;;;;;;3.37;2.53;;;23.70;55.00;;;;;;5094189;28;20428;-66
2023/09/19 11:36:14;;;;;;;4.80;2.03;;;23.70;54.90;;;;;;5094478;28;20403;-67
2023/09/19 11:39:14;;;;;;;9.23;3.50;;;23.70;54.90;;;;;;5094395;28;20407;-66
2023/09/19 11:41:40;;;;;;;74.43;28.73;;;23.70;55.00;;;;;;5093985;28;20994;-68
2023/09/19 11:44:06;;;;;;;192.60;64.23;;;23.70;54.80;;;;;;5093962;28;20464;-66
2023/09/19 11:46:54;;;;;;;186.97;54.33;;;23.70;54.70;;;;;;5094305;28;20423;-64
2023/09/19 11:49:29;;;;;;;81.60;32.00;;;23.70;54.60;;;;;;5094117;28;20249;-67
2023/09/19 11:51:56;;;;;;;48.67;19.70;;;23.70;55.10;;;;;;5092309;28;20470;-66
2023/09/19 11:54:22;;;;;;;44.50;15.33;;;23.70;54.40;;;;;;5093823;28;20457;-66
2023/09/19 11:56:54;;;;;;;36.77;13.73;;;23.70;54.20;;;;;;5093895;28;20507;-67
2023/09/19 11:59:30;;;;;;;34.20;12.03;;;23.70;54.00;;;;;;5092711;28;20408;-67
2023/09/19 12:01:57;;;;;;;25.83;8.90;;;23.70;54.30;;;;;;5093339;28;20948;-66
2023/09/19 12:04:45;;;;;;;19.00;7.60;;;23.70;53.80;;;;;;5093045;28;20420;-68
2023/09/19 12:07:15;;;;;;;14.23;5.37;;;23.70;53.90;;;;;;5093351;28;20392;-66
2023/09/19 12:10:05;;;;;;;12.83;4.17;;;23.70;54.00;;;;;;5093555;28;20540;-69
2023/09/19 12:12:33;;;;;;;11.47;4.07;;;23.70;54.00;;;;;;5088095;28;20475;-67
2023/09/19 12:14:59;;;;;;;5.40;3.40;;;23.70;54.00;;;;;;5093099;28;20395;-67
2023/09/19 12:17:44;;;;;;;8.57;3.90;;;23.70;54.10;;;;;;5093095;28;20510;-67
2023/09/19 12:20:14;;;;;;;13.80;3.70;;;23.70;53.80;;;;;;5093014;28;20816;-67
2023/09/19 12:22:45;;;;;;;7.67;2.93;;;23.70;53.70;;;;;;5093482;28;20470;-67
2023/09/19 12:25:11;;;;;;;5.23;2.33;;;23.70;53.80;;;;;;5093159;28;20411;-67
2023/09/19 12:27:52;;;;;;;3.43;2.30;;;23.70;53.80;;;;;;5093075;28;20412;-67
2023/09/19 12:30:20;;;;;;;5.57;2.70;;;23.70;54.00;;;;;;5092937;28;20439;-67
2023/09/19 12:32:49;;;;;;;4.33;1.93;;;23.70;54.20;;;;;;5091767;28;20835;-67
2023/09/19 12:35:34;;;;;;;3.83;1.90;;;23.70;54.00;;;;;;5092476;28;20420;-67
2023/09/19 12:38:00;;;;;;;5.83;2.83;;;23.70;53.90;;;;;;5093078;28;20765;-70
2023/09/19 12:40:32;;;;;;;3.10;2.03;;;23.70;53.80;;;;;;5092726;28;20427;-66
2023/09/19 12:42:59;;;;;;;3.53;2.33;;;23.70;53.90;;;;;;5092839;28;20435;-66
2023/09/19 12:45:26;;;;;;;2.70;2.20;;;23.70;53.90;;;;;;5092814;28;20830;-65
2023/09/19 12:48:17;;;;;;;3.67;2.27;;;23.70;54.00;;;;;;5092680;28;20412;-66
2023/09/19 12:51:05;;;;;;;3.00;1.80;;;23.70;53.90;;;;;;5082775;28;20499;-64
2023/09/19 12:53:46;;;;;;;3.00;1.60;;;23.70;53.90;;;;;;5072993;28;20523;-66
2023/09/19 12:56:17;;;;;;;4.50;2.33;;;23.70;54.10;;;;;;5072532;28;20923;-63
2023/09/19 12:58:54;;;;;;;2.83;1.87;;;23.70;54.20;;;;;;5069154;28;20416;-66
2023/09/19 13:01:20;;;;;;;2.43;1.57;;;23.70;54.30;;;;;;5078037;28;20411;-67
2023/09/19 13:03:46;;;;;;;2.80;1.83;;;23.70;54.30;;;;;;5092430;28;20980;-65
2023/09/19 13:06:12;;;;;;;3.17;1.67;;;23.70;54.50;;;;;;5092216;28;20400;-66
2023/09/19 13:08:41;;;;;;;4.10;2.10;;;23.70;54.50;;;;;;5092343;28;20170;-66